Terminal Aerodrome Forecast
Issued by NWS Indianapolis, IN

Home | Current Version | Previous Version | Text Only | Print | Product List | Glossary On
Versions: 1 2 3 4 5 6 7 8 9 10 11 12 13 14 15 16 17 18 19 20 21 22 23 24 25 26
000
FTUS43 KIND 250500
TAFIND
TAF
KIND 250525Z 2506/2612 14010KT 6SM -SHRA OVC050
     FM250900 19006KT 5SM -SHRA VCTS OVC035CB
     FM251400 29015G22KT P6SM SCT040
     FM251600 30015G22KT P6SM FEW050
     FM260100 27008KT P6SM SCT120
     FM260300 23004KT P6SM BKN080=

USA.gov is the U.S. government's official web portal to all federal, state and local government web resources and services.